Time;durP1;ratioP1;P1;durP2;ratioP2;P2;SDS_P1;SDS_P2;PMS_P1;PMS_P2;Temp;Humidity;BMP_temperature;BMP_pressure;BME280_temperature;BME280_humidity;BME280_pressure;Samples;Min_cycle;Max_cycle;Signal;HPM_P1;HPM_P2
2022/05/08 00:00:35;;;;;;;13.93;4.53;;;7.70;99.90;;;;;;5048102;28;20119;-70
2022/05/08 00:03:00;;;;;;;18.73;5.35;;;7.70;99.90;;;;;;5049508;28;20059;-69
2022/05/08 00:05:26;;;;;;;9.43;3.90;;;7.60;99.90;;;;;;5064663;28;20253;-69
2022/05/08 00:07:52;;;;;;;18.67;4.18;;;7.70;99.90;;;;;;5038228;28;20306;-70
2022/05/08 00:10:19;;;;;;;11.45;4.30;;;7.90;99.90;;;;;;5058068;28;20040;-72
2022/05/08 00:12:44;;;;;;;15.20;4.53;;;7.70;99.90;;;;;;5059403;28;20027;-72
2022/05/08 00:15:11;;;;;;;15.07;3.80;;;7.70;99.90;;;;;;5075368;28;20056;-70
2022/05/08 00:17:36;;;;;;;12.90;4.25;;;7.70;99.90;;;;;;5077958;28;20333;-69
2022/05/08 00:20:05;;;;;;;18.02;4.20;;;7.70;99.90;;;;;;5042423;28;20082;-70
2022/05/08 00:22:30;;;;;;;14.45;4.60;;;7.70;99.90;;;;;;5051649;28;20060;-69
2022/05/08 00:24:56;;;;;;;14.38;4.80;;;7.70;99.90;;;;;;5040490;28;20029;-71
2022/05/08 00:27:22;;;;;;;14.93;5.15;;;7.70;99.90;;;;;;5060660;28;20039;-73
2022/05/08 00:29:47;;;;;;;15.90;4.72;;;7.70;99.90;;;;;;5030468;28;20230;-73
2022/05/08 00:32:13;;;;;;;18.92;4.00;;;7.80;99.90;;;;;;5074335;28;20048;-72
2022/05/08 00:34:39;;;;;;;8.80;3.67;;;7.70;99.90;;;;;;5055247;28;20099;-71
2022/05/08 00:37:07;;;;;;;16.25;4.78;;;7.70;99.90;;;;;;5041300;28;20037;-70
2022/05/08 00:39:33;;;;;;;11.45;4.13;;;7.60;99.90;;;;;;5074325;28;20048;-72
2022/05/08 00:41:59;;;;;;;11.70;3.60;;;7.60;99.90;;;;;;5066696;28;20036;-70
2022/05/08 00:44:25;;;;;;;15.90;4.32;;;7.60;99.90;;;;;;5059677;28;20025;-72
2022/05/08 00:46:51;;;;;;;14.23;4.57;;;7.60;99.90;;;;;;5094037;28;20280;-73
2022/05/08 00:49:17;;;;;;;14.23;4.57;;;7.70;99.90;;;;;;5076132;28;20105;-69
2022/05/08 00:51:47;;;;;;;13.88;4.00;;;7.60;99.90;;;;;;5049294;28;20037;-71
2022/05/08 00:54:13;;;;;;;12.40;4.78;;;7.60;99.90;;;;;;5045937;28;20048;-70
2022/05/08 00:56:40;;;;;;;16.40;4.20;;;7.60;99.90;;;;;;5074808;28;20074;-72
2022/05/08 00:59:06;;;;;;;10.10;3.92;;;7.50;99.90;;;;;;5087641;28;20100;-71
2022/05/08 01:01:31;;;;;;;12.45;3.90;;;7.50;99.90;;;;;;5083829;28;20044;-72
2022/05/08 01:03:57;;;;;;;11.95;3.63;;;7.50;99.90;;;;;;5051885;28;20036;-71
2022/05/08 01:06:23;;;;;;;16.55;4.60;;;7.80;99.90;;;;;;5066761;28;20033;-71
2022/05/08 01:08:50;;;;;;;15.18;4.35;;;7.50;99.90;;;;;;5046640;28;20036;-71
2022/05/08 01:11:17;;;;;;;9.25;3.78;;;7.50;99.90;;;;;;5046814;28;20041;-71
2022/05/08 01:13:43;;;;;;;15.60;4.10;;;7.50;99.90;;;;;;5044744;28;20032;-69
2022/05/08 01:16:11;;;;;;;8.48;4.10;;;7.50;99.90;;;;;;5061387;28;21442;-71
2022/05/08 01:18:38;;;;;;;9.77;3.95;;;7.40;99.90;;;;;;5046988;28;20036;-70
2022/05/08 01:21:06;;;;;;;11.80;3.92;;;7.40;99.90;;;;;;5048288;28;20033;-70
2022/05/08 01:23:31;;;;;;;12.93;3.85;;;7.30;99.90;;;;;;5028041;28;20041;-69
2022/05/08 01:25:57;;;;;;;12.07;3.60;;;7.30;99.90;;;;;;5029672;28;20044;-72
2022/05/08 01:28:25;;;;;;;13.68;3.60;;;7.30;99.90;;;;;;5060651;28;20207;-69
2022/05/08 01:30:54;;;;;;;13.60;3.95;;;7.40;99.90;;;;;;5058239;28;20035;-69
2022/05/08 01:33:20;;;;;;;10.13;3.97;;;7.30;99.90;;;;;;5045761;28;20084;-72
2022/05/08 01:35:47;;;;;;;18.33;5.40;;;7.20;99.90;;;;;;5080399;28;20045;-71
2022/05/08 01:38:15;;;;;;;11.77;4.70;;;7.20;99.90;;;;;;5061887;28;20057;-71
2022/05/08 01:40:41;;;;;;;17.75;4.15;;;7.30;99.90;;;;;;5087027;28;20044;-71
2022/05/08 01:43:07;;;;;;;11.00;4.35;;;7.20;99.90;;;;;;5029526;28;20044;-70
2022/05/08 01:45:33;;;;;;;11.40;3.92;;;7.10;99.90;;;;;;5043538;28;20037;-71
2022/05/08 01:50:44;;;;;;;10.70;4.00;;;7.20;99.90;;;;;;5078260;28;20078;-70
2022/05/08 01:53:10;;;;;;;14.50;3.80;;;7.20;99.90;;;;;;5025094;28;20025;-71
2022/05/08 01:55:36;;;;;;;8.13;3.05;;;7.30;99.90;;;;;;5053076;28;20399;-72
2022/05/08 01:58:03;;;;;;;9.85;4.13;;;7.20;99.90;;;;;;5058022;28;20208;-72
2022/05/08 02:00:30;;;;;;;17.50;3.65;;;7.30;99.90;;;;;;5054729;28;20037;-69
2022/05/08 02:02:59;;;;;;;8.75;4.10;;;7.20;99.90;;;;;;5051370;28;20516;-70
2022/05/08 02:05:28;;;;;;;8.30;3.45;;;7.20;99.90;;;;;;5051549;28;20107;-68
2022/05/08 02:07:54;;;;;;;12.45;3.97;;;7.20;99.90;;;;;;5050310;28;20095;-69
2022/05/08 02:10:19;;;;;;;10.18;3.50;;;7.30;99.90;;;;;;5058922;28;20037;-71
2022/05/08 02:12:45;;;;;;;15.73;3.63;;;7.20;99.90;;;;;;5055464;28;20025;-71
2022/05/08 02:15:12;;;;;;;13.13;3.70;;;7.10;99.90;;;;;;5051134;28;20090;-72
2022/05/08 02:17:39;;;;;;;11.55;3.65;;;7.10;99.90;;;;;;5053655;28;20208;-69
2022/05/08 02:20:07;;;;;;;8.43;3.30;;;7.10;99.90;;;;;;5038118;28;20017;-70
2022/05/08 02:22:34;;;;;;;13.60;3.70;;;7.10;99.90;;;;;;5055281;28;20029;-70
2022/05/08 02:25:00;;;;;;;13.90;3.97;;;7.10;99.90;;;;;;5083795;28;20059;-70
2022/05/08 02:27:25;;;;;;;13.13;3.85;;;7.10;99.90;;;;;;5048922;28;20235;-71
2022/05/08 02:29:52;;;;;;;14.80;3.70;;;7.00;99.90;;;;;;5026460;28;20203;-70
2022/05/08 02:32:18;;;;;;;14.32;4.18;;;6.90;99.90;;;;;;5042802;28;20036;-71
2022/05/08 02:34:45;;;;;;;10.40;3.40;;;6.80;99.90;;;;;;5054317;28;20025;-71
2022/05/08 02:37:11;;;;;;;14.30;3.92;;;6.80;99.90;;;;;;5073661;28;20090;-71
2022/05/08 02:39:37;;;;;;;9.18;3.35;;;6.80;99.90;;;;;;5053720;28;20030;-70
2022/05/08 02:42:03;;;;;;;11.25;3.30;;;6.80;99.90;;;;;;5034122;28;20100;-70
2022/05/08 02:44:29;;;;;;;7.85;2.97;;;6.70;99.90;;;;;;5077844;28;20043;-70
2022/05/08 02:46:54;;;;;;;8.45;3.13;;;6.70;99.90;;;;;;5052935;28;20064;-69
2022/05/08 02:49:20;;;;;;;13.82;3.30;;;6.60;99.90;;;;;;5033234;28;20342;-71
2022/05/08 02:51:46;;;;;;;12.93;3.70;;;6.90;99.90;;;;;;5033553;28;20113;-71
2022/05/08 02:54:12;;;;;;;10.55;3.63;;;6.70;99.90;;;;;;5074103;28;20266;-71
2022/05/08 02:59:21;;;;;;;17.08;3.30;;;6.70;99.90;;;;;;5065115;28;20037;-69
2022/05/08 03:01:47;;;;;;;12.45;3.78;;;6.70;99.90;;;;;;5049266;28;20031;-70
2022/05/08 03:04:13;;;;;;;9.63;3.60;;;6.60;99.90;;;;;;5044721;28;20049;-70
2022/05/08 03:06:38;;;;;;;10.13;3.03;;;6.70;99.90;;;;;;5039320;28;20041;-70
2022/05/08 03:09:04;;;;;;;10.65;3.47;;;6.60;99.90;;;;;;5017451;28;20041;-69
2022/05/08 03:11:31;;;;;;;9.77;3.25;;;6.50;99.90;;;;;;5038163;28;20025;-69
2022/05/08 03:13:57;;;;;;;10.15;3.15;;;6.50;99.90;;;;;;5043113;28;20029;-72
2022/05/08 03:16:25;;;;;;;9.15;3.20;;;6.50;99.90;;;;;;5050059;28;20045;-71
2022/05/08 03:18:51;;;;;;;5.88;3.28;;;6.50;99.90;;;;;;5083991;28;20039;-69
2022/05/08 03:21:17;;;;;;;7.80;3.10;;;6.50;99.90;;;;;;5021995;28;20048;-71
2022/05/08 03:23:44;;;;;;;11.80;4.15;;;6.50;99.90;;;;;;5032168;28;20036;-71
2022/05/08 03:26:10;;;;;;;11.40;3.63;;;6.40;99.90;;;;;;5089682;28;20061;-69
2022/05/08 03:28:40;;;;;;;14.57;3.22;;;6.70;99.90;;;;;;5077332;28;20036;-71
2022/05/08 03:31:07;;;;;;;7.85;3.42;;;6.80;99.90;;;;;;5055817;28;20037;-72
2022/05/08 03:33:34;;;;;;;9.50;3.05;;;6.40;99.90;;;;;;5051269;28;20034;-69
2022/05/08 03:36:00;;;;;;;11.55;3.35;;;6.50;99.90;;;;;;5036869;28;20041;-72
2022/05/08 03:38:27;;;;;;;11.55;3.60;;;6.50;99.90;;;;;;5053522;28;20037;-72
2022/05/08 03:40:54;;;;;;;7.65;3.03;;;6.40;99.90;;;;;;5087289;28;20091;-69
2022/05/08 03:43:20;;;;;;;10.40;3.25;;;6.40;99.90;;;;;;5063580;28;20081;-72
2022/05/08 03:45:49;;;;;;;6.43;3.10;;;6.40;99.90;;;;;;5047344;28;20140;-69
2022/05/08 03:48:15;;;;;;;5.28;2.40;;;6.50;99.90;;;;;;5043494;28;20057;-68
2022/05/08 03:50:41;;;;;;;12.45;2.83;;;6.40;99.90;;;;;;5060232;28;20393;-69
2022/05/08 03:53:07;;;;;;;9.90;3.22;;;6.40;99.90;;;;;;5059727;28;20037;-70
2022/05/08 03:55:32;;;;;;;6.28;2.70;;;6.40;99.90;;;;;;5059863;28;20342;-72
2022/05/08 03:57:58;;;;;;;6.80;2.20;;;6.40;99.90;;;;;;5079762;28;20258;-72
2022/05/08 04:00:24;;;;;;;7.82;3.42;;;6.80;99.90;;;;;;5070122;28;20036;-72
2022/05/08 04:02:50;;;;;;;9.45;2.70;;;6.40;99.90;;;;;;5045564;28;20029;-73
2022/05/08 04:05:16;;;;;;;6.60;2.55;;;6.40;99.90;;;;;;5057734;28;20037;-70
2022/05/08 04:07:42;;;;;;;5.95;2.70;;;6.30;99.90;;;;;;5039959;28;20212;-71
2022/05/08 04:10:08;;;;;;;6.00;2.00;;;6.40;99.90;;;;;;5072845;28;20072;-72
2022/05/08 04:12:35;;;;;;;7.05;2.72;;;6.40;99.90;;;;;;5073757;28;20030;-70
2022/05/08 04:15:00;;;;;;;5.20;2.47;;;6.50;99.90;;;;;;5040496;28;20075;-71
2022/05/08 04:17:28;;;;;;;6.57;2.88;;;6.50;99.90;;;;;;5079884;28;20230;-72
2022/05/08 04:19:57;;;;;;;5.85;2.33;;;6.50;99.90;;;;;;5050213;28;20112;-73
2022/05/08 04:25:08;;;;;;;10.45;2.53;;;6.50;99.90;;;;;;5039301;28;20048;-72
2022/05/08 04:27:35;;;;;;;7.32;2.25;;;6.60;99.90;;;;;;5076125;28;20025;-71
2022/05/08 04:30:02;;;;;;;8.23;3.08;;;6.60;99.90;;;;;;5079246;28;20103;-69
2022/05/08 04:32:28;;;;;;;10.57;2.75;;;6.70;99.90;;;;;;5046415;28;20052;-71
2022/05/08 04:34:53;;;;;;;8.73;2.85;;;6.60;99.90;;;;;;5062562;28;20063;-71
2022/05/08 04:37:19;;;;;;;10.98;2.97;;;6.70;99.90;;;;;;5037234;28;20093;-69
2022/05/08 04:39:45;;;;;;;12.07;3.45;;;6.80;99.90;;;;;;5062920;28;20036;-70
2022/05/08 04:42:10;;;;;;;7.20;2.70;;;6.70;99.90;;;;;;5045718;28;20197;-71
2022/05/08 04:44:36;;;;;;;8.05;2.78;;;6.80;99.90;;;;;;5055988;28;20206;-70
2022/05/08 04:47:02;;;;;;;9.75;2.83;;;6.90;99.90;;;;;;5036586;28;20085;-68
2022/05/08 04:49:29;;;;;;;7.35;2.33;;;7.00;99.90;;;;;;5065536;28;20037;-69
2022/05/08 04:51:55;;;;;;;8.10;3.40;;;7.00;99.90;;;;;;5010571;28;20272;-68
2022/05/08 04:54:22;;;;;;;7.75;2.60;;;7.00;99.90;;;;;;5070152;28;20029;-71
2022/05/08 04:56:48;;;;;;;8.85;2.70;;;7.00;99.90;;;;;;5035462;28;20083;-69
2022/05/08 04:59:15;;;;;;;10.77;3.50;;;7.10;99.90;;;;;;5035841;28;20033;-70
2022/05/08 05:01:41;;;;;;;9.82;2.72;;;7.10;99.90;;;;;;5037326;28;20040;-69
2022/05/08 05:04:06;;;;;;;10.30;3.25;;;7.20;99.90;;;;;;5033312;28;20311;-70
2022/05/08 05:06:32;;;;;;;6.05;2.45;;;7.10;99.90;;;;;;5035229;28;20204;-70
2022/05/08 05:08:59;;;;;;;9.00;2.83;;;7.20;99.90;;;;;;5024550;28;21184;-72
2022/05/08 05:11:24;;;;;;;8.48;2.83;;;7.30;99.90;;;;;;5035616;28;20103;-69
2022/05/08 05:13:50;;;;;;;7.05;3.00;;;7.30;99.90;;;;;;5070393;28;20025;-70
2022/05/08 05:16:16;;;;;;;7.75;2.65;;;7.30;99.90;;;;;;5035396;28;20029;-69
2022/05/08 05:18:41;;;;;;;5.38;2.70;;;7.50;99.90;;;;;;5017301;28;20044;-70
2022/05/08 05:21:07;;;;;;;8.20;2.97;;;7.50;99.90;;;;;;5018283;28;20044;-72
2022/05/08 05:23:36;;;;;;;9.95;2.47;;;7.70;99.90;;;;;;5036659;28;20112;-71
2022/05/08 05:26:02;;;;;;;6.07;2.58;;;7.80;99.90;;;;;;5032496;28;20029;-72
2022/05/08 05:28:29;;;;;;;7.30;2.53;;;7.90;99.90;;;;;;5034539;28;20041;-72
2022/05/08 05:30:55;;;;;;;7.50;3.00;;;8.00;99.90;;;;;;5034921;28;20034;-73
2022/05/08 05:33:20;;;;;;;10.50;2.88;;;8.10;99.90;;;;;;5032717;28;20036;-69
2022/05/08 05:35:46;;;;;;;9.18;2.65;;;8.20;99.90;;;;;;5030107;28;20032;-73
2022/05/08 05:38:12;;;;;;;6.88;2.40;;;8.30;99.90;;;;;;5058376;28;20241;-71
2022/05/08 05:40:37;;;;;;;8.65;2.45;;;8.50;99.90;;;;;;5039099;28;20039;-71
2022/05/08 05:43:03;;;;;;;7.05;2.50;;;8.60;99.90;;;;;;5033509;28;20029;-71
2022/05/08 05:45:29;;;;;;;9.05;2.88;;;8.70;99.90;;;;;;5044864;28;20044;-70
2022/05/08 05:47:55;;;;;;;6.00;2.03;;;8.90;99.90;;;;;;5032770;28;20045;-71
2022/05/08 05:50:22;;;;;;;9.00;2.55;;;9.00;99.90;;;;;;5032931;28;20049;-72
2022/05/08 05:52:49;;;;;;;4.78;2.50;;;9.10;99.90;;;;;;5042263;28;20326;-71
2022/05/08 05:55:15;;;;;;;5.45;2.20;;;9.00;99.90;;;;;;5031444;28;20210;-70
2022/05/08 05:57:40;;;;;;;7.18;2.20;;;9.10;99.90;;;;;;5046781;28;20104;-72
2022/05/08 06:00:12;;;;;;;7.53;2.20;;;9.20;99.90;;;;;;5040607;28;20025;-70
2022/05/08 06:02:40;;;;;;;8.10;2.42;;;9.10;99.90;;;;;;5040254;28;20040;-72
2022/05/08 06:05:06;;;;;;;14.70;2.72;;;9.10;99.90;;;;;;5074743;28;20033;-71
2022/05/08 06:07:37;;;;;;;8.45;2.20;;;9.10;99.90;;;;;;5039666;28;20476;-71
2022/05/08 06:10:08;;;;;;;6.75;2.42;;;9.20;99.90;;;;;;5056290;28;20218;-73
2022/05/08 06:12:34;;;;;;;6.13;2.20;;;9.20;99.90;;;;;;5082196;28;20048;-70
2022/05/08 06:15:00;;;;;;;5.32;1.90;;;9.30;99.90;;;;;;5081867;28;20092;-72
2022/05/08 06:17:26;;;;;;;8.43;2.00;;;9.20;99.90;;;;;;5037783;28;20040;-69
2022/05/08 06:19:51;;;;;;;5.43;1.70;;;9.30;99.90;;;;;;5057487;28;20216;-70
2022/05/08 06:22:17;;;;;;;6.07;1.80;;;9.40;99.90;;;;;;5058625;28;20040;-71
2022/05/08 06:24:43;;;;;;;5.25;2.33;;;9.40;99.90;;;;;;5047332;28;20049;-69
2022/05/08 06:27:08;;;;;;;6.45;2.00;;;9.50;99.90;;;;;;5033865;28;20044;-70
2022/05/08 06:29:34;;;;;;;7.40;1.80;;;9.60;99.90;;;;;;5056313;28;20029;-70
2022/05/08 06:32:00;;;;;;;4.78;1.60;;;9.70;99.90;;;;;;5038774;28;20029;-72
2022/05/08 06:34:27;;;;;;;11.40;2.38;;;9.80;99.90;;;;;;5037446;28;20368;-69
2022/05/08 06:36:53;;;;;;;7.95;1.83;;;9.80;99.90;;;;;;5051366;28;20040;-71
2022/05/08 06:39:19;;;;;;;9.57;2.22;;;9.70;99.90;;;;;;5039415;28;20098;-70
2022/05/08 06:41:45;;;;;;;5.63;1.90;;;9.60;99.90;;;;;;5055114;28;20090;-71
2022/05/08 06:44:13;;;;;;;6.70;2.42;;;9.70;99.90;;;;;;5036908;28;20359;-72
2022/05/08 06:46:39;;;;;;;7.55;2.10;;;9.60;99.90;;;;;;5026755;28;20052;-70
2022/05/08 06:49:06;;;;;;;12.90;2.20;;;9.70;99.90;;;;;;5047167;28;20376;-73
2022/05/08 06:51:35;;;;;;;5.97;2.10;;;9.70;99.90;;;;;;5075095;28;20342;-70
2022/05/08 06:54:01;;;;;;;5.63;2.03;;;9.60;99.90;;;;;;5064012;28;20029;-73
2022/05/08 06:56:30;;;;;;;9.88;2.40;;;9.70;99.90;;;;;;5042379;28;20036;-70
2022/05/08 07:01:42;;;;;;;6.82;2.22;;;10.50;99.90;;;;;;5059349;28;20230;-70
2022/05/08 07:04:10;;;;;;;10.13;1.85;;;10.40;99.90;;;;;;5057311;28;20039;-72
2022/05/08 07:06:37;;;;;;;7.55;2.30;;;10.30;99.90;;;;;;5087570;28;20036;-69
2022/05/08 07:09:07;;;;;;;7.00;2.20;;;10.20;99.90;;;;;;5097440;28;20028;-74
2022/05/08 07:11:33;;;;;;;5.70;1.92;;;10.50;99.90;;;;;;5042135;28;20047;-71
2022/05/08 07:14:00;;;;;;;6.88;1.95;;;11.10;99.90;;;;;;5040111;28;20024;-72
2022/05/08 07:16:26;;;;;;;7.80;2.10;;;11.10;99.90;;;;;;5095240;28;20055;-69
2022/05/08 07:18:52;;;;;;;6.82;2.05;;;11.00;99.90;;;;;;5092486;28;20044;-72
2022/05/08 07:21:19;;;;;;;12.13;2.35;;;11.00;99.90;;;;;;5062625;28;20099;-71
2022/05/08 07:23:45;;;;;;;5.82;2.03;;;11.10;99.90;;;;;;5059521;28;20096;-71
2022/05/08 07:26:11;;;;;;;4.60;1.73;;;11.60;99.90;;;;;;5062488;28;20389;-72
2022/05/08 07:28:37;;;;;;;8.55;1.80;;;11.40;99.90;;;;;;5052080;28;20052;-72
2022/05/08 07:31:03;;;;;;;7.68;2.08;;;11.20;99.90;;;;;;5046028;28;20315;-71
2022/05/08 07:33:34;;;;;;;9.40;1.90;;;10.90;99.90;;;;;;5061736;28;20270;-72
2022/05/08 07:36:12;;;;;;;8.00;2.03;;;10.90;99.90;;;;;;5055962;28;20052;-72
2022/05/08 07:38:46;;;;;;;6.13;1.92;;;10.90;99.90;;;;;;5046116;28;20231;-67
2022/05/08 07:41:17;;;;;;;7.90;1.90;;;10.90;99.90;;;;;;5039010;28;20049;-74
2022/05/08 07:43:46;;;;;;;6.32;2.00;;;11.40;99.90;;;;;;5063189;28;20044;-70
2022/05/08 07:46:13;;;;;;;6.50;2.00;;;11.50;99.90;;;;;;5046093;28;20040;-69
2022/05/08 07:48:39;;;;;;;4.65;1.90;;;11.70;99.90;;;;;;5040296;28;20049;-71
2022/05/08 07:51:04;;;;;;;7.60;1.92;;;11.90;99.90;;;;;;5051455;28;20090;-70
2022/05/08 07:53:31;;;;;;;8.38;2.08;;;11.80;99.90;;;;;;5063369;28;20035;-70
2022/05/08 07:56:00;;;;;;;9.00;2.65;;;11.90;99.90;;;;;;5045695;28;20040;-73
2022/05/08 07:58:33;;;;;;;10.63;2.10;;;11.90;99.90;;;;;;5076759;28;20032;-70
2022/05/08 08:01:00;;;;;;;9.65;2.13;;;11.90;99.90;;;;;;5067438;28;20347;-69
2022/05/08 08:03:31;;;;;;;9.13;1.92;;;12.00;99.90;;;;;;5040898;28;20036;-72
2022/05/08 08:05:58;;;;;;;7.65;2.00;;;11.90;99.90;;;;;;5057542;28;20341;-71
2022/05/08 08:08:25;;;;;;;5.57;1.75;;;11.80;99.90;;;;;;5073827;28;20298;-73
2022/05/08 08:10:58;;;;;;;6.15;2.13;;;11.60;99.90;;;;;;5052750;28;20021;-69
2022/05/08 08:13:26;;;;;;;6.50;2.05;;;11.50;99.90;;;;;;5047754;28;20103;-72
2022/05/08 08:15:52;;;;;;;10.10;1.85;;;11.90;99.90;;;;;;5080883;28;20036;-71
2022/05/08 08:18:18;;;;;;;4.65;1.80;;;12.20;99.90;;;;;;5062701;28;20059;-72
2022/05/08 08:20:45;;;;;;;7.00;2.15;;;11.90;99.90;;;;;;5032122;28;20219;-72
2022/05/08 08:23:11;;;;;;;6.53;1.75;;;11.90;99.90;;;;;;5061352;28;20095;-69
2022/05/08 08:25:37;;;;;;;8.40;3.17;;;11.90;99.90;;;;;;5065756;28;20048;-69
2022/05/08 08:28:03;;;;;;;5.45;1.88;;;12.20;99.90;;;;;;5062941;28;20059;-69
2022/05/08 08:30:29;;;;;;;5.53;1.80;;;12.30;99.90;;;;;;5026835;28;20020;-69
2022/05/08 08:32:55;;;;;;;10.43;2.03;;;12.50;99.90;;;;;;5046339;28;20028;-71
2022/05/08 08:35:21;;;;;;;7.55;2.10;;;12.50;99.90;;;;;;5079169;28;20226;-71
2022/05/08 08:37:46;;;;;;;9.43;2.20;;;12.10;99.90;;;;;;5079624;28;20043;-70
2022/05/08 08:40:13;;;;;;;8.85;1.98;;;12.00;99.90;;;;;;5058412;28;20025;-68
2022/05/08 08:42:43;;;;;;;6.93;2.10;;;12.10;99.90;;;;;;5076521;28;20310;-69
2022/05/08 08:48:11;;;;;;;8.65;2.40;;;11.80;99.90;;;;;;5056756;28;20064;-72
2022/05/08 08:50:37;;;;;;;8.70;2.47;;;12.40;99.90;;;;;;5075169;28;20125;-70
2022/05/08 08:53:05;;;;;;;6.15;1.85;;;12.20;99.90;;;;;;5042493;28;20052;-69
2022/05/08 08:55:32;;;;;;;6.35;2.28;;;12.10;99.90;;;;;;5041886;28;20409;-70
2022/05/08 08:57:58;;;;;;;10.65;1.80;;;12.00;99.90;;;;;;5059112;28;20037;-68
2022/05/08 09:00:24;;;;;;;6.95;2.35;;;12.40;99.90;;;;;;5042051;28;20033;-70
2022/05/08 09:02:53;;;;;;;8.93;2.38;;;12.60;99.90;;;;;;5074941;28;20378;-69
2022/05/08 09:05:19;;;;;;;8.02;2.17;;;12.80;99.90;;;;;;5025571;28;20167;-70
2022/05/08 09:07:49;;;;;;;9.15;2.42;;;13.40;99.90;;;;;;5026148;28;20025;-73
2022/05/08 09:10:22;;;;;;;10.15;2.17;;;13.40;99.90;;;;;;5042260;28;20251;-72
2022/05/08 09:12:54;;;;;;;10.52;2.15;;;13.70;99.90;;;;;;5074277;28;20075;-69
2022/05/08 09:15:21;;;;;;;8.90;2.28;;;13.30;99.90;;;;;;5078767;28;20064;-69
2022/05/08 09:17:48;;;;;;;7.22;2.00;;;13.70;99.90;;;;;;5062510;28;20043;-71
2022/05/08 09:20:29;;;;;;;8.75;1.83;;;13.90;99.90;;;;;;5080686;28;20032;-72
2022/05/08 09:23:07;;;;;;;6.55;1.92;;;14.20;99.90;;;;;;5084762;28;20039;-70
2022/05/08 09:25:55;;;;;;;6.10;1.77;;;14.70;99.90;;;;;;5079249;28;20071;-72
2022/05/08 09:28:41;;;;;;;8.30;2.15;;;14.60;99.90;;;;;;5045738;28;20044;-70
2022/05/08 09:31:08;;;;;;;10.32;2.05;;;14.60;99.90;;;;;;5046345;28;20067;-68
2022/05/08 09:33:39;;;;;;;8.18;2.20;;;14.90;99.90;;;;;;5062269;28;20029;-71
2022/05/08 09:36:10;;;;;;;7.95;1.92;;;15.10;99.90;;;;;;5062719;28;20220;-71
2022/05/08 09:38:51;;;;;;;8.38;2.20;;;14.50;99.90;;;;;;5045664;28;20029;-69
2022/05/08 09:41:26;;;;;;;9.55;2.35;;;14.70;99.90;;;;;;5045653;28;20025;-71
2022/05/08 09:43:54;;;;;;;7.50;2.00;;;15.20;99.90;;;;;;5046137;28;20044;-70
2022/05/08 09:46:23;;;;;;;7.10;2.08;;;15.40;99.90;;;;;;5045971;28;20048;-72
2022/05/08 09:48:50;;;;;;;5.60;1.90;;;15.70;99.90;;;;;;5053301;28;20090;-72
2022/05/08 09:51:16;;;;;;;7.80;3.00;;;15.70;99.90;;;;;;5065171;28;20100;-73
2022/05/08 09:53:44;;;;;;;7.40;2.05;;;16.00;99.90;;;;;;5044925;28;20079;-73
2022/05/08 09:56:11;;;;;;;5.50;2.30;;;16.10;99.90;;;;;;5045430;28;20028;-70
2022/05/08 09:58:41;;;;;;;5.57;1.90;;;16.70;99.90;;;;;;5061965;28;20033;-71
2022/05/08 10:01:07;;;;;;;5.38;1.98;;;16.40;99.90;;;;;;5029108;28;20114;-71
2022/05/08 10:03:33;;;;;;;9.63;2.05;;;16.60;99.90;;;;;;5044296;28;20033;-71
2022/05/08 10:06:00;;;;;;;5.00;2.00;;;16.70;99.90;;;;;;5045600;28;20232;-70
2022/05/08 10:08:34;;;;;;;9.52;2.50;;;16.80;99.90;;;;;;5029054;28;20036;-74
2022/05/08 10:14:08;;;;;;;6.15;2.60;;;15.80;99.90;;;;;;5045172;28;20029;-71
2022/05/08 10:16:55;;;;;;;8.05;2.05;;;16.30;99.90;;;;;;5061433;28;20255;-69
2022/05/08 10:19:27;;;;;;;7.38;1.90;;;15.70;99.90;;;;;;5028473;28;20037;-71
2022/05/08 10:21:56;;;;;;;6.93;2.28;;;15.80;99.90;;;;;;5061907;28;20044;-71
2022/05/08 10:24:31;;;;;;;5.65;1.92;;;16.40;99.90;;;;;;5049053;28;20036;-72
2022/05/08 10:27:21;;;;;;;5.13;2.38;;;16.10;99.90;;;;;;5087097;28;20096;-73
2022/05/08 10:29:49;;;;;;;5.57;1.85;;;16.00;99.90;;;;;;5028598;28;20159;-70
2022/05/08 10:32:33;;;;;;;4.55;1.92;;;16.40;99.90;;;;;;5078428;28;20118;-71
2022/05/08 10:35:13;;;;;;;7.18;2.10;;;16.70;99.90;;;;;;5069538;28;20036;-68
2022/05/08 10:37:43;;;;;;;8.57;2.58;;;16.30;99.90;;;;;;5098005;28;20098;-71
2022/05/08 10:40:24;;;;;;;7.90;2.38;;;16.50;99.90;;;;;;5081439;28;20043;-71
2022/05/08 10:42:55;;;;;;;5.00;1.77;;;16.60;99.90;;;;;;5064917;28;20032;-72
2022/05/08 10:45:33;;;;;;;7.82;2.00;;;16.90;99.90;;;;;;5053348;28;20047;-73
2022/05/08 10:48:10;;;;;;;5.47;1.75;;;16.90;99.90;;;;;;5044511;28;20049;-71
2022/05/08 10:50:42;;;;;;;7.97;2.25;;;16.80;99.90;;;;;;5061002;28;20034;-69
2022/05/08 10:53:20;;;;;;;6.93;2.17;;;16.80;99.90;;;;;;5078368;28;20258;-73
2022/05/08 10:55:46;;;;;;;6.88;1.90;;;16.50;99.90;;;;;;5061691;28;20051;-72
2022/05/08 10:58:12;;;;;;;4.60;1.90;;;16.60;99.90;;;;;;5044330;28;20033;-72
2022/05/08 11:00:37;;;;;;;8.88;2.25;;;17.10;99.90;;;;;;5027872;28;20041;-70
2022/05/08 11:03:03;;;;;;;4.25;2.10;;;17.30;99.90;;;;;;5044217;28;20037;-71
2022/05/08 11:05:29;;;;;;;6.88;2.00;;;17.00;99.90;;;;;;5030009;28;20335;-71
2022/05/08 11:07:59;;;;;;;5.75;2.10;;;16.00;99.90;;;;;;5086471;28;20044;-73
2022/05/08 11:10:35;;;;;;;5.90;1.95;;;16.50;99.90;;;;;;5060210;28;20064;-73
2022/05/08 11:13:10;;;;;;;4.30;1.80;;;16.60;99.90;;;;;;5076708;28;20040;-72
2022/05/08 11:15:42;;;;;;;6.43;1.73;;;16.70;99.90;;;;;;5040980;28;20162;-71
2022/05/08 11:18:12;;;;;;;6.40;1.73;;;17.00;99.90;;;;;;5073647;28;20331;-71
2022/05/08 11:20:49;;;;;;;5.57;2.17;;;16.30;99.90;;;;;;5039992;28;20096;-71
2022/05/08 11:23:20;;;;;;;6.38;1.95;;;17.10;99.90;;;;;;5056930;28;20055;-71
2022/05/08 11:26:04;;;;;;;6.20;2.08;;;16.60;99.90;;;;;;5041014;28;20063;-72
2022/05/08 11:28:30;;;;;;;4.43;1.70;;;16.80;99.90;;;;;;5075877;28;20047;-72
2022/05/08 11:30:59;;;;;;;5.93;1.80;;;17.00;99.90;;;;;;5061108;28;20064;-69
2022/05/08 11:36:40;;;;;;;7.78;2.47;;;16.90;99.90;;;;;;5060375;28;20269;-72
2022/05/08 11:39:10;;;;;;;4.57;1.55;;;16.40;99.90;;;;;;5078194;28;20058;-70
2022/05/08 11:41:38;;;;;;;6.72;2.08;;;16.70;99.90;;;;;;5086381;28;20052;-69
2022/05/08 11:44:13;;;;;;;3.42;1.63;;;16.70;99.90;;;;;;5042171;28;20139;-73
2022/05/08 11:46:40;;;;;;;5.63;1.73;;;16.30;99.90;;;;;;5073963;28;20049;-72
2022/05/08 11:49:18;;;;;;;5.38;2.08;;;16.70;99.90;;;;;;5057428;28;20386;-71
2022/05/08 11:51:50;;;;;;;7.55;1.77;;;16.50;99.90;;;;;;5058692;28;20047;-72
2022/05/08 11:54:21;;;;;;;6.13;1.90;;;16.90;99.90;;;;;;5074495;28;20036;-72
2022/05/08 11:56:51;;;;;;;5.43;1.95;;;17.70;99.50;;;;;;5056757;28;20085;-72
2022/05/08 11:59:19;;;;;;;7.07;2.30;;;17.20;99.90;;;;;;5090347;28;20076;-69
2022/05/08 12:01:53;;;;;;;5.18;1.98;;;17.10;99.90;;;;;;5075036;28;20323;-73
2022/05/08 12:04:26;;;;;;;4.32;1.90;;;17.10;99.90;;;;;;5063569;28;20108;-71
2022/05/08 12:07:05;;;;;;;5.28;2.00;;;17.40;99.90;;;;;;5060563;28;20351;-71
2022/05/08 12:09:51;;;;;;;5.13;2.00;;;17.20;99.90;;;;;;5060303;28;20223;-72
2022/05/08 12:12:19;;;;;;;8.43;2.00;;;17.30;99.90;;;;;;5060673;28;20249;-73
2022/05/08 12:14:45;;;;;;;4.90;2.00;;;16.50;99.90;;;;;;5059186;28;20040;-72
2022/05/08 12:17:11;;;;;;;5.60;2.00;;;16.90;99.90;;;;;;5060771;28;20283;-73
2022/05/08 12:19:36;;;;;;;6.70;2.20;;;16.20;99.90;;;;;;5043637;28;20065;-71
2022/05/08 12:22:29;;;;;;;6.47;2.20;;;17.10;99.90;;;;;;5060892;28;20338;-72
2022/05/08 12:24:59;;;;;;;5.68;2.00;;;17.00;98.70;;;;;;5021189;28;20134;-70
2022/05/08 12:27:25;;;;;;;4.80;2.22;;;17.10;99.90;;;;;;5055128;28;20040;-70
2022/05/08 12:29:53;;;;;;;4.82;1.77;;;17.60;99.90;;;;;;5093589;28;20166;-71
2022/05/08 12:32:24;;;;;;;5.90;1.90;;;17.80;99.90;;;;;;5060500;28;20103;-71
2022/05/08 12:34:53;;;;;;;5.57;1.67;;;17.60;98.30;;;;;;5076172;28;20279;-73
2022/05/08 12:37:19;;;;;;;4.50;1.85;;;17.30;99.90;;;;;;5066823;28;20045;-74
2022/05/08 12:39:46;;;;;;;5.50;2.38;;;17.40;99.90;;;;;;5056521;28;20047;-73
2022/05/08 12:42:12;;;;;;;5.00;1.88;;;17.40;99.90;;;;;;5056973;28;20056;-71
2022/05/08 12:44:38;;;;;;;7.07;1.83;;;17.70;99.90;;;;;;5073283;28;20052;-70
2022/05/08 12:47:09;;;;;;;7.25;2.08;;;17.60;99.90;;;;;;5073157;28;20033;-72
2022/05/08 12:49:36;;;;;;;6.53;2.00;;;16.30;97.50;;;;;;5040016;28;20056;-73
2022/05/08 12:52:03;;;;;;;7.70;2.28;;;16.90;99.90;;;;;;5023816;28;20037;-70
2022/05/08 12:54:30;;;;;;;6.57;1.70;;;17.00;99.90;;;;;;5057519;28;20040;-71
2022/05/08 12:56:56;;;;;;;5.53;1.77;;;17.40;99.90;;;;;;5061227;28;20239;-73
2022/05/08 13:02:06;;;;;;;;;;;17.30;99.90;;;;;;5044617;28;20083;-71
2022/05/08 13:04:31;;;;;;;7.68;2.03;;;17.10;96.40;;;;;;5043921;28;19921;-73
2022/05/08 13:06:57;;;;;;;6.03;2.20;;;17.30;99.90;;;;;;5044040;28;20044;-71
2022/05/08 13:09:23;;;;;;;6.47;1.88;;;17.40;98.70;;;;;;5045037;28;20212;-73
2022/05/08 13:11:49;;;;;;;4.20;1.95;;;16.70;96.10;;;;;;5077274;28;20032;-73
2022/05/08 13:14:15;;;;;;;4.38;1.73;;;17.20;96.30;;;;;;5043942;28;20075;-74
2022/05/08 13:16:41;;;;;;;4.45;1.70;;;17.00;95.40;;;;;;5062902;28;20324;-74